Time;durP1;ratioP1;P1;durP2;ratioP2;P2;SDS_P1;SDS_P2;PMS_P1;PMS_P2;Temp;Humidity;BMP_temperature;BMP_pressure;BME280_temperature;BME280_humidity;BME280_pressure;Samples;Min_cycle;Max_cycle;Signal;HPM_P1;HPM_P2
2023/06/06 00:00:37;;;;;;;4.90;2.67;;;;;;;;;;4996881;28;20045;-79
2023/06/06 00:03:04;;;;;;;5.65;2.42;;;;;;;;;;4991685;28;20030;-78
2023/06/06 00:05:31;;;;;;;7.90;2.67;;;;;;;;;;4994466;28;20032;-79
2023/06/06 00:07:57;;;;;;;5.80;2.45;;;;;;;;;;4995300;28;20030;-80
2023/06/06 00:10:24;;;;;;;5.85;2.20;;;;;;;;;;4993893;28;20065;-78
2023/06/06 00:12:52;;;;;;;4.70;2.67;;;;;;;;;;4997847;28;20094;-79
2023/06/06 00:15:19;;;;;;;5.72;2.85;;;;;;;;;;4992343;28;20030;-78
2023/06/06 00:17:45;;;;;;;4.03;2.72;;;;;;;;;;4996783;28;20047;-78
2023/06/06 00:20:12;;;;;;;4.88;2.28;;;;;;;;;;4998141;28;20022;-78
2023/06/06 00:22:39;;;;;;;4.28;2.45;;;;;;;;;;4996628;28;20078;-78
2023/06/06 00:25:06;;;;;;;4.97;2.40;;;;;;;;;;4992150;28;20042;-78
2023/06/06 00:27:33;;;;;;;5.20;2.80;;;;;;;;;;4998791;28;20022;-79
2023/06/06 00:29:59;;;;;;;7.05;2.95;;;;;;;;;;4997470;28;20035;-79
2023/06/06 00:32:26;;;;;;;5.57;2.75;;;;;;;;;;4992449;28;20047;-78
2023/06/06 00:34:53;;;;;;;5.80;2.95;;;;;;;;;;4994159;28;20014;-79
2023/06/06 00:37:19;;;;;;;6.47;2.95;;;;;;;;;;4989508;28;20032;-79
2023/06/06 00:39:45;;;;;;;9.55;3.22;;;;;;;;;;4993338;28;20034;-79
2023/06/06 00:42:11;;;;;;;4.97;2.22;;;;;;;;;;4981245;28;20050;-78
2023/06/06 00:44:37;;;;;;;5.70;2.57;;;;;;;;;;4995385;28;20050;-79
2023/06/06 00:47:03;;;;;;;3.53;2.40;;;;;;;;;;4990647;28;20107;-78
2023/06/06 00:49:32;;;;;;;8.70;2.87;;;;;;;;;;4994324;28;20026;-78
2023/06/06 00:52:00;;;;;;;5.10;2.80;;;;;;;;;;4989779;28;20095;-79
2023/06/06 00:54:26;;;;;;;4.40;2.70;;;;;;;;;;4995793;28;20073;-78
2023/06/06 00:56:53;;;;;;;8.07;2.90;;;;;;;;;;4996399;28;20051;-77
2023/06/06 00:59:23;;;;;;;6.10;2.83;;;;;;;;;;4996423;28;20019;-78
2023/06/06 01:01:49;;;;;;;4.57;2.97;;;;;;;;;;4993911;28;20019;-78
2023/06/06 01:04:15;;;;;;;4.85;2.80;;;;;;;;;;4995634;28;20014;-78
2023/06/06 01:06:42;;;;;;;7.50;3.10;;;;;;;;;;4996347;28;20033;-78
2023/06/06 01:09:09;;;;;;;4.40;3.10;;;;;;;;;;4999342;28;20042;-78
2023/06/06 01:11:47;;;;;;;7.70;3.33;;;;;;;;;;4998822;28;20065;-79
2023/06/06 01:14:23;;;;;;;5.27;2.60;;;;;;;;;;4996072;28;20025;-79
2023/06/06 01:16:52;;;;;;;7.33;3.00;;;;;;;;;;4998946;28;20114;-78
2023/06/06 01:19:20;;;;;;;9.13;2.80;;;;;;;;;;4995569;28;20015;-78
2023/06/06 01:21:46;;;;;;;8.77;2.73;;;;;;;;;;4994339;28;20027;-79
2023/06/06 01:24:12;;;;;;;8.60;3.40;;;;;;;;;;4999388;28;20038;-78
2023/06/06 01:26:39;;;;;;;7.90;3.30;;;;;;;;;;4998121;28;20443;-80
2023/06/06 01:29:05;;;;;;;9.60;3.23;;;;;;;;;;4997833;28;20014;-80
2023/06/06 01:31:41;;;;;;;4.83;3.03;;;;;;;;;;4996352;28;20034;-79
2023/06/06 01:34:12;;;;;;;10.30;3.80;;;;;;;;;;4994789;28;20202;-79
2023/06/06 01:36:45;;;;;;;7.07;3.37;;;;;;;;;;4992006;28;20120;-80
2023/06/06 01:39:19;;;;;;;5.93;3.20;;;;;;;;;;4996707;28;20039;-78
2023/06/06 01:41:47;;;;;;;5.33;2.97;;;;;;;;;;5000024;28;20026;-78
2023/06/06 01:44:14;;;;;;;6.00;3.57;;;;;;;;;;4996874;28;20018;-78
2023/06/06 01:46:41;;;;;;;6.40;3.50;;;;;;;;;;4995191;28;20037;-78
2023/06/06 01:49:07;;;;;;;9.37;3.77;;;;;;;;;;4996152;28;20038;-78
2023/06/06 01:51:36;;;;;;;6.67;3.47;;;;;;;;;;4995561;28;20042;-78
2023/06/06 01:54:02;;;;;;;7.60;3.70;;;;;;;;;;4997551;28;20026;-78
2023/06/06 01:56:33;;;;;;;9.17;3.13;;;;;;;;;;4994845;28;20024;-79
2023/06/06 01:59:00;;;;;;;7.73;4.00;;;;;;;;;;4994729;28;20049;-80
2023/06/06 02:01:26;;;;;;;8.53;3.63;;;;;;;;;;4991411;28;20035;-77
2023/06/06 02:03:52;;;;;;;6.80;3.90;;;;;;;;;;4993887;28;20030;-79
2023/06/06 02:06:19;;;;;;;8.47;4.00;;;;;;;;;;4995296;28;20065;-79
2023/06/06 02:08:50;;;;;;;10.00;3.90;;;;;;;;;;4993643;28;20034;-79
2023/06/06 02:11:16;;;;;;;13.07;4.30;;;;;;;;;;4989171;28;20031;-78
2023/06/06 02:13:48;;;;;;;5.93;3.77;;;;;;;;;;4994487;28;20463;-79
2023/06/06 02:16:17;;;;;;;6.60;4.20;;;;;;;;;;4996650;28;20019;-78
2023/06/06 02:18:44;;;;;;;7.60;3.90;;;;;;;;;;4996635;28;20039;-78
2023/06/06 02:21:12;;;;;;;10.70;4.40;;;;;;;;;;4992521;28;20029;-79
2023/06/06 02:23:41;;;;;;;14.20;4.53;;;;;;;;;;4995747;28;20043;-79
2023/06/06 02:26:07;;;;;;;11.83;4.33;;;;;;;;;;4995955;28;20050;-78
2023/06/06 02:28:33;;;;;;;12.60;4.50;;;;;;;;;;4997581;28;20027;-78
2023/06/06 02:31:00;;;;;;;7.40;4.70;;;;;;;;;;4990399;28;20019;-77
2023/06/06 02:33:26;;;;;;;10.97;5.40;;;;;;;;;;4990029;28;20109;-78
2023/06/06 02:35:52;;;;;;;9.77;5.20;;;;;;;;;;4996736;28;20039;-78
2023/06/06 02:38:18;;;;;;;9.07;5.30;;;;;;;;;;4995231;28;20091;-79
2023/06/06 02:40:46;;;;;;;7.37;4.83;;;;;;;;;;4996799;28;20066;-80
2023/06/06 02:43:12;;;;;;;6.80;5.07;;;;;;;;;;4993943;28;20019;-78
2023/06/06 02:45:38;;;;;;;10.60;6.03;;;;;;;;;;4993937;28;20022;-78
2023/06/06 02:48:05;;;;;;;7.87;5.40;;;;;;;;;;4994402;28;20050;-80
2023/06/06 02:50:31;;;;;;;9.40;5.83;;;;;;;;;;4995240;28;20026;-79
2023/06/06 02:53:02;;;;;;;10.30;5.27;;;;;;;;;;4998811;28;20039;-80
2023/06/06 02:55:29;;;;;;;8.70;5.50;;;;;;;;;;4996054;28;20033;-80
2023/06/06 02:57:55;;;;;;;8.87;5.30;;;;;;;;;;4995429;28;20075;-79
2023/06/06 03:00:21;;;;;;;8.97;5.67;;;;;;;;;;4994785;28;20055;-81
2023/06/06 03:02:47;;;;;;;8.93;5.63;;;;;;;;;;4996939;28;20019;-80
2023/06/06 03:05:13;;;;;;;9.17;5.97;;;;;;;;;;4998769;28;20117;-79
2023/06/06 03:07:40;;;;;;;13.77;6.50;;;;;;;;;;4994568;28;20054;-80
2023/06/06 03:10:07;;;;;;;10.57;6.17;;;;;;;;;;4995718;28;20018;-80
2023/06/06 03:12:33;;;;;;;8.53;5.77;;;;;;;;;;4982147;28;20037;-80
2023/06/06 03:15:05;;;;;;;11.03;5.90;;;;;;;;;;4997063;28;20011;-80
2023/06/06 03:17:35;;;;;;;;;;;;;;;;;;4994539;28;20047;-80
2023/06/06 03:20:01;;;;;;;9.80;6.27;;;;;;;;;;4992522;28;19902;-79
2023/06/06 03:22:27;;;;;;;13.83;7.60;;;;;;;;;;4999630;28;20131;-79
2023/06/06 03:24:54;;;;;;;9.77;6.30;;;;;;;;;;4995859;28;20034;-79
2023/06/06 03:27:20;;;;;;;12.03;6.60;;;;;;;;;;4996103;28;20096;-80
2023/06/06 03:29:46;;;;;;;13.53;6.70;;;;;;;;;;4995827;28;20026;-80
2023/06/06 03:32:15;;;;;;;10.87;6.63;;;;;;;;;;4991235;28;20023;-78
2023/06/06 03:34:41;;;;;;;8.87;6.27;;;;;;;;;;4994665;28;20023;-81
2023/06/06 03:37:10;;;;;;;10.90;6.87;;;;;;;;;;4993182;28;20018;-79
2023/06/06 03:39:36;;;;;;;10.70;7.17;;;;;;;;;;4993681;28;20034;-79
2023/06/06 03:42:05;;;;;;;10.77;6.77;;;;;;;;;;4994835;28;20026;-78
2023/06/06 03:44:34;;;;;;;9.47;6.77;;;;;;;;;;4994092;28;20011;-79
2023/06/06 03:47:00;;;;;;;13.43;6.73;;;;;;;;;;4989524;28;20042;-79
2023/06/06 03:49:35;;;;;;;18.13;7.63;;;;;;;;;;4997292;28;20019;-77
2023/06/06 03:52:04;;;;;;;12.93;6.87;;;;;;;;;;4996368;28;20083;-78
2023/06/06 03:54:30;;;;;;;11.30;6.50;;;;;;;;;;4993274;28;21481;-79
2023/06/06 03:56:57;;;;;;;13.77;7.20;;;;;;;;;;4995165;28;20090;-80
2023/06/06 03:59:23;;;;;;;15.83;7.03;;;;;;;;;;4990428;28;20023;-78
2023/06/06 04:01:53;;;;;;;13.37;7.60;;;;;;;;;;4993420;28;20070;-80
2023/06/06 04:04:19;;;;;;;12.80;7.80;;;;;;;;;;4992799;28;20022;-79
2023/06/06 04:06:45;;;;;;;10.43;7.30;;;;;;;;;;4998299;28;20050;-80
2023/06/06 04:09:13;;;;;;;18.17;7.33;;;;;;;;;;4991479;28;20073;-80
2023/06/06 04:11:44;;;;;;;14.33;7.73;;;;;;;;;;4992980;28;20030;-80
2023/06/06 04:14:13;;;;;;;16.67;7.97;;;;;;;;;;4990153;28;20046;-77
2023/06/06 04:16:40;;;;;;;13.57;7.70;;;;;;;;;;4997688;28;20015;-79
2023/06/06 04:19:06;;;;;;;13.67;7.90;;;;;;;;;;4994639;28;20019;-78
2023/06/06 04:21:32;;;;;;;13.70;7.80;;;;;;;;;;4991814;28;20007;-78
2023/06/06 04:23:59;;;;;;;9.97;7.13;;;;;;;;;;4989577;28;21509;-78
2023/06/06 04:26:33;;;;;;;16.23;7.23;;;;;;;;;;4993538;28;20050;-79
2023/06/06 04:28:59;;;;;;;12.70;7.20;;;;;;;;;;4998836;28;20041;-78
2023/06/06 04:31:29;;;;;;;11.43;7.87;;;;;;;;;;4997180;28;20035;-77
2023/06/06 04:33:55;;;;;;;11.00;8.27;;;;;;;;;;4995523;28;20034;-78
2023/06/06 04:36:21;;;;;;;13.67;8.50;;;;;;;;;;4996964;28;20019;-79
2023/06/06 04:38:51;;;;;;;15.53;7.87;;;;;;;;;;4996014;28;20038;-79
2023/06/06 04:41:19;;;;;;;11.40;7.73;;;;;;;;;;4997470;28;20119;-80
2023/06/06 04:43:49;;;;;;;11.37;7.83;;;;;;;;;;4998356;28;20015;-79
2023/06/06 04:46:21;;;;;;;16.90;9.27;;;;;;;;;;4993343;28;20038;-78
2023/06/06 04:48:53;;;;;;;13.63;8.17;;;;;;;;;;4992936;28;20149;-79
2023/06/06 04:51:20;;;;;;;13.90;8.60;;;;;;;;;;4998826;28;20020;-79
2023/06/06 04:53:46;;;;;;;12.53;8.20;;;;;;;;;;4991818;28;20047;-81
2023/06/06 04:56:12;;;;;;;17.27;9.10;;;;;;;;;;4997679;28;20041;-78
2023/06/06 04:58:39;;;;;;;15.27;8.30;;;;;;;;;;4995459;28;20034;-78
2023/06/06 05:01:05;;;;;;;14.57;8.77;;;;;;;;;;4994158;28;20014;-78
2023/06/06 05:03:32;;;;;;;20.80;8.80;;;;;;;;;;4997830;28;20053;-78
2023/06/06 05:05:58;;;;;;;19.63;9.07;;;;;;;;;;4997114;28;20054;-81
2023/06/06 05:08:25;;;;;;;12.03;8.83;;;;;;;;;;4995816;28;20172;-78
2023/06/06 05:10:52;;;;;;;14.07;8.87;;;;;;;;;;4993703;28;20026;-78
2023/06/06 05:13:18;;;;;;;13.57;8.47;;;;;;;;;;4996036;28;20056;-78
2023/06/06 05:15:44;;;;;;;16.10;9.73;;;;;;;;;;4996304;28;20034;-79
2023/06/06 05:18:13;;;;;;;13.70;8.43;;;;;;;;;;4999323;28;20015;-79
2023/06/06 05:20:39;;;;;;;13.67;8.50;;;;;;;;;;4995368;28;20023;-80
2023/06/06 05:23:06;;;;;;;13.53;8.30;;;;;;;;;;4996842;28;20027;-78
2023/06/06 05:25:32;;;;;;;16.00;9.17;;;;;;;;;;4997637;28;20115;-79
2023/06/06 05:27:58;;;;;;;12.90;8.53;;;;;;;;;;4995728;28;20038;-78
2023/06/06 05:30:24;;;;;;;17.97;9.10;;;;;;;;;;4995131;28;20033;-79
2023/06/06 05:32:50;;;;;;;21.30;9.17;;;;;;;;;;4997439;28;20062;-79
2023/06/06 05:35:19;;;;;;;15.10;8.87;;;;;;;;;;4998405;28;20120;-79
2023/06/06 05:37:45;;;;;;;14.47;9.13;;;;;;;;;;4997819;28;20066;-80
2023/06/06 05:40:19;;;;;;;13.07;8.67;;;;;;;;;;4995716;28;20038;-78
2023/06/06 05:42:48;;;;;;;15.23;9.50;;;;;;;;;;4993971;28;20023;-78
2023/06/06 05:45:14;;;;;;;19.47;9.60;;;;;;;;;;4997195;28;20038;-80
2023/06/06 05:47:40;;;;;;;18.30;9.57;;;;;;;;;;4997286;28;20034;-79
2023/06/06 05:50:06;;;;;;;19.30;9.83;;;;;;;;;;4994933;28;20023;-80
2023/06/06 05:52:32;;;;;;;16.07;9.47;;;;;;;;;;4996880;28;20026;-80
2023/06/06 05:55:05;;;;;;;16.97;9.93;;;;;;;;;;4998612;28;20065;-79
2023/06/06 05:57:32;;;;;;;20.67;10.57;;;;;;;;;;4996225;28;20034;-80
2023/06/06 06:00:00;;;;;;;14.93;9.17;;;;;;;;;;4998839;28;20033;-80
2023/06/06 06:02:28;;;;;;;16.20;10.30;;;;;;;;;;4994885;28;20041;-79
2023/06/06 06:04:57;;;;;;;14.13;9.03;;;;;;;;;;4999475;28;20043;-79
2023/06/06 06:07:24;;;;;;;15.33;9.30;;;;;;;;;;5000420;28;20039;-79
2023/06/06 06:09:50;;;;;;;16.37;9.23;;;;;;;;;;4994055;28;20034;-79
2023/06/06 06:12:17;;;;;;;19.13;9.30;;;;;;;;;;5001884;28;20030;-80
2023/06/06 06:14:43;;;;;;;14.47;9.27;;;;;;;;;;4999419;28;20014;-80
2023/06/06 06:17:09;;;;;;;12.67;9.13;;;;;;;;;;4994013;28;20011;-80
2023/06/06 06:19:35;;;;;;;19.80;10.33;;;;;;;;;;5000314;28;20018;-80
2023/06/06 06:22:01;;;;;;;13.03;8.57;;;;;;;;;;4999428;28;20043;-79
2023/06/06 06:24:30;;;;;;;13.40;9.40;;;;;;;;;;4993786;28;20019;-78
2023/06/06 06:26:56;;;;;;;20.53;9.43;;;;;;;;;;4998956;28;20085;-80
2023/06/06 06:29:22;;;;;;;16.87;9.73;;;;;;;;;;4998033;28;20088;-78
2023/06/06 06:31:48;;;;;;;13.70;9.50;;;;;;;;;;4994098;28;20051;-79
2023/06/06 06:34:16;;;;;;;22.90;9.73;;;;;;;;;;4997369;28;21145;-80
2023/06/06 06:36:42;;;;;;;15.23;10.07;;;;;;;;;;5000617;28;20019;-79
2023/06/06 06:39:09;;;;;;;14.77;9.27;;;;;;;;;;4997904;28;20038;-79
2023/06/06 06:41:35;;;;;;;15.25;9.57;;;;;;;;;;4995842;28;20053;-78
2023/06/06 06:44:01;;;;;;;15.05;9.45;;;;;;;;;;4993179;28;20147;-79
2023/06/06 06:46:27;;;;;;;18.50;10.82;;;;;;;;;;4982709;28;20043;-80
2023/06/06 06:48:53;;;;;;;22.17;11.00;;;;;;;;;;4997024;28;20038;-79
2023/06/06 06:51:21;;;;;;;14.10;9.68;;;;;;;;;;4995934;28;20082;-79
2023/06/06 06:53:49;;;;;;;16.88;10.25;;;;;;;;;;4995594;28;20038;-79
2023/06/06 06:56:21;;;;;;;15.95;9.70;;;;;;;;;;4996582;28;20026;-78
2023/06/06 06:58:48;;;;;;;21.45;9.93;;;;;;;;;;4992700;28;20014;-78
2023/06/06 07:01:19;;;;;;;19.10;8.98;;;;;;;;;;4999357;28;20023;-77
2023/06/06 07:03:48;;;;;;;18.13;10.13;;;;;;;;;;4997111;28;20051;-79
2023/06/06 07:06:15;;;;;;;17.73;10.60;;;;;;;;;;4996700;28;20046;-79
2023/06/06 07:08:42;;;;;;;15.18;10.10;;;;;;;;;;4993317;28;20035;-78
2023/06/06 07:11:08;;;;;;;14.48;9.27;;;;;;;;;;4994174;28;20039;-80
2023/06/06 07:13:34;;;;;;;17.20;9.65;;;;;;;;;;4995028;28;20050;-79
2023/06/06 07:16:01;;;;;;;19.92;10.35;;;;;;;;;;4981299;28;20030;-78
2023/06/06 07:18:27;;;;;;;14.80;9.88;;;;;;;;;;4998349;28;20126;-79
2023/06/06 07:20:56;;;;;;;19.33;10.55;;;;;;;;;;4993676;28;20034;-79
2023/06/06 07:23:22;;;;;;;14.30;9.57;;;;;;;;;;4999845;28;20082;-79
2023/06/06 07:25:48;;;;;;;16.77;10.40;;;;;;;;;;4994726;28;20043;-79
2023/06/06 07:28:15;;;;;;;19.15;9.77;;;;;;;;;;4995468;28;20011;-78
2023/06/06 07:30:41;;;;;;;13.02;9.35;;;;;;;;;;4992754;28;20035;-79
2023/06/06 07:33:07;;;;;;;16.10;10.40;;;;;;;;;;4990311;28;20090;-79
2023/06/06 07:35:33;;;;;;;20.23;11.02;;;;;;;;;;4988529;28;20026;-78
2023/06/06 07:38:02;;;;;;;17.65;10.32;;;;;;;;;;4993080;28;20018;-79
2023/06/06 07:40:28;;;;;;;16.42;10.27;;;;;;;;;;4993859;28;20043;-78
2023/06/06 07:42:55;;;;;;;18.27;9.85;;;;;;;;;;4996894;28;20038;-79
2023/06/06 07:45:21;;;;;;;20.77;9.75;;;;;;;;;;4995435;28;20017;-80
2023/06/06 07:47:47;;;;;;;15.43;9.77;;;;;;;;;;4995472;28;20051;-78
2023/06/06 07:50:13;;;;;;;19.25;11.00;;;;;;;;;;4992976;28;20022;-78
2023/06/06 07:52:43;;;;;;;19.02;9.38;;;;;;;;;;4991475;28;20037;-79
2023/06/06 07:55:11;;;;;;;15.07;9.98;;;;;;;;;;4995911;28;20022;-78
2023/06/06 07:57:39;;;;;;;17.55;9.57;;;;;;;;;;4993955;28;20086;-80
2023/06/06 08:00:07;;;;;;;23.30;11.13;;;;;;;;;;4994641;28;20035;-78
2023/06/06 08:02:33;;;;;;;15.68;9.07;;;;;;;;;;4990998;28;20030;-78
2023/06/06 08:04:59;;;;;;;20.92;10.10;;;;;;;;;;4992307;28;20589;-79
2023/06/06 08:07:25;;;;;;;14.30;8.68;;;;;;;;;;4992542;28;20123;-78
2023/06/06 08:09:52;;;;;;;19.05;9.23;;;;;;;;;;4991808;28;20039;-80
2023/06/06 08:12:18;;;;;;;21.30;9.63;;;;;;;;;;4990963;28;20172;-77
2023/06/06 08:14:44;;;;;;;17.65;10.32;;;;;;;;;;4990293;28;20086;-79
2023/06/06 08:17:10;;;;;;;15.82;10.80;;;;;;;;;;4990753;28;20078;-79
2023/06/06 08:19:39;;;;;;;14.98;9.65;;;;;;;;;;4990596;28;20026;-79
2023/06/06 08:22:06;;;;;;;21.63;9.15;;;;;;;;;;4983494;28;20268;-79
2023/06/06 08:24:32;;;;;;;19.20;10.48;;;;;;;;;;4989585;28;20053;-80
2023/06/06 08:26:58;;;;;;;21.77;9.40;;;;;;;;;;4974723;28;20483;-79
2023/06/06 08:29:24;;;;;;;19.23;9.80;;;;;;;;;;4985352;28;20028;-80
2023/06/06 08:31:52;;;;;;;17.13;9.82;;;;;;;;;;4987083;28;20038;-80
2023/06/06 08:34:18;;;;;;;14.80;8.80;;;;;;;;;;4989402;28;20297;-80
2023/06/06 08:36:44;;;;;;;19.17;10.35;;;;;;;;;;4987984;28;20832;-80
2023/06/06 08:39:10;;;;;;;12.48;9.02;;;;;;;;;;4985612;28;20030;-79
2023/06/06 08:41:36;;;;;;;16.48;9.63;;;;;;;;;;4990607;28;20038;-80
2023/06/06 08:44:03;;;;;;;13.20;9.40;;;;;;;;;;4980822;28;20034;-80
2023/06/06 08:46:34;;;;;;;17.85;10.20;;;;;;;;;;4986795;28;20049;-80
2023/06/06 08:49:04;;;;;;;17.27;9.10;;;;;;;;;;4983495;28;20479;-82
2023/06/06 08:51:31;;;;;;;18.92;10.07;;;;;;;;;;4982127;28;20035;-83
2023/06/06 08:53:58;;;;;;;17.38;9.25;;;;;;;;;;4976414;28;20026;-82
2023/06/06 08:56:25;;;;;;;17.13;9.85;;;;;;;;;;4979679;28;20034;-83
2023/06/06 08:58:52;;;;;;;25.08;8.30;;;;;;;;;;4977144;28;20041;-83
2023/06/06 09:01:21;;;;;;;16.42;7.10;;;;;;;;;;4968520;28;20194;-84
2023/06/06 09:03:52;;;;;;;31.50;10.07;;;;;;;;;;4967560;28;20031;-83
2023/06/06 09:06:19;;;;;;;25.33;8.43;;;;;;;;;;4969353;28;21718;-81
2023/06/06 09:08:45;;;;;;;14.90;8.63;;;;;;;;;;4967640;28;20345;-84
2023/06/06 09:11:11;;;;;;;12.05;7.40;;;;;;;;;;4973973;28;20024;-83
2023/06/06 09:13:44;;;;;;;19.20;9.50;;;;;;;;;;4973140;28;20061;-84
2023/06/06 09:16:14;;;;;;;17.00;7.68;;;;;;;;;;4968912;28;20084;-83
2023/06/06 09:18:41;;;;;;;12.23;8.05;;;;;;;;;;4967940;28;20097;-83
2023/06/06 09:21:07;;;;;;;17.05;8.32;;;;;;;;;;4967626;28;20061;-82
2023/06/06 09:23:36;;;;;;;14.90;8.60;;;;;;;;;;4971070;28;20042;-83
2023/06/06 09:26:02;;;;;;;15.25;7.85;;;;;;;;;;4968576;28;20031;-84
2023/06/06 09:28:38;;;;;;;14.82;8.38;;;;;;;;;;4967606;28;20031;-84
2023/06/06 09:31:25;;;;;;;11.98;7.80;;;;;;;;;;4960041;28;20018;-85
2023/06/06 09:33:51;;;;;;;13.35;7.80;;;;;;;;;;4976965;28;20027;-84
2023/06/06 09:36:21;;;;;;;17.27;6.90;;;;;;;;;;4968630;28;20035;-84
2023/06/06 09:38:47;;;;;;;14.50;6.85;;;;;;;;;;4973918;28;20056;-85
2023/06/06 09:41:15;;;;;;;12.60;7.35;;;;;;;;;;4971399;28;20073;-84
2023/06/06 09:43:41;;;;;;;11.40;7.15;;;;;;;;;;4970247;28;20042;-83
2023/06/06 09:46:10;;;;;;;14.35;6.55;;;;;;;;;;4972534;28;20030;-84
2023/06/06 09:48:38;;;;;;;16.27;7.10;;;;;;;;;;4970452;28;20035;-84
2023/06/06 09:51:04;;;;;;;11.93;7.20;;;;;;;;;;4968160;28;20114;-84
2023/06/06 09:53:31;;;;;;;15.75;6.88;;;;;;;;;;4973085;28;20058;-84
2023/06/06 09:56:02;;;;;;;10.52;6.10;;;;;;;;;;4970369;28;20037;-84
2023/06/06 09:58:30;;;;;;;13.45;7.15;;;;;;;;;;4973179;28;20031;-84
2023/06/06 10:00:59;;;;;;;12.95;7.38;;;;;;;;;;4969443;28;20042;-84
2023/06/06 10:03:26;;;;;;;11.43;6.65;;;;;;;;;;4968575;28;20030;-83
2023/06/06 10:05:52;;;;;;;12.07;6.03;;;;;;;;;;4971429;28;20368;-84
2023/06/06 10:08:21;;;;;;;14.80;7.38;;;;;;;;;;4969599;28;20031;-84
2023/06/06 10:10:49;;;;;;;10.30;6.53;;;;;;;;;;4970523;28;20535;-84
2023/06/06 10:13:16;;;;;;;10.90;6.60;;;;;;;;;;4969123;28;20039;-84
2023/06/06 10:15:42;;;;;;;9.80;5.35;;;;;;;;;;4965097;28;20572;-83
2023/06/06 10:18:09;;;;;;;11.77;5.28;;;;;;;;;;4969275;28;20046;-84
2023/06/06 10:20:35;;;;;;;10.90;6.78;;;;;;;;;;4966284;28;20492;-83
2023/06/06 10:23:02;;;;;;;12.32;6.82;;;;;;;;;;4968873;28;20023;-83
2023/06/06 10:25:28;;;;;;;7.75;5.00;;;;;;;;;;4969178;28;20022;-84
2023/06/06 10:28:15;;;;;;;9.25;4.28;;;;;;;;;;4968600;28;20047;-82
2023/06/06 10:30:42;;;;;;;8.43;5.68;;;;;;;;;;4980987;28;20042;-83
2023/06/06 10:33:28;;;;;;;11.85;5.30;;;;;;;;;;4966724;28;20440;-84
2023/06/06 10:35:57;;;;;;;8.98;4.72;;;;;;;;;;4975991;28;20102;-81
2023/06/06 10:38:23;;;;;;;8.85;4.32;;;;;;;;;;4967245;28;20042;-83
2023/06/06 10:40:55;;;;;;;12.52;5.18;;;;;;;;;;4971559;28;20060;-83
2023/06/06 10:43:33;;;;;;;10.82;4.90;;;;;;;;;;4972339;28;20359;-83
2023/06/06 10:46:02;;;;;;;6.90;3.83;;;;;;;;;;4966937;28;20030;-81
2023/06/06 10:48:38;;;;;;;9.05;4.90;;;;;;;;;;4970105;28;20455;-84
2023/06/06 10:51:04;;;;;;;8.70;3.80;;;;;;;;;;4971170;28;20046;-83
2023/06/06 10:53:30;;;;;;;17.58;5.13;;;;;;;;;;4967085;28;20463;-84
2023/06/06 10:55:56;;;;;;;8.85;4.45;;;;;;;;;;4966382;28;20039;-83
2023/06/06 10:58:27;;;;;;;6.75;4.28;;;;;;;;;;4973068;28;20109;-82
2023/06/06 11:01:00;;;;;;;12.30;5.35;;;;;;;;;;4974924;28;20030;-83
2023/06/06 11:03:35;;;;;;;9.02;4.68;;;;;;;;;;4967471;28;20031;-83
2023/06/06 11:06:01;;;;;;;7.43;4.35;;;;;;;;;;4967476;28;20097;-83
2023/06/06 11:08:34;;;;;;;9.88;4.30;;;;;;;;;;4969190;28;20035;-83
2023/06/06 11:11:19;;;;;;;8.25;3.95;;;;;;;;;;4966901;28;20026;-84
2023/06/06 11:13:51;;;;;;;9.40;4.57;;;;;;;;;;4969218;28;21799;-84
2023/06/06 11:16:27;;;;;;;7.13;4.10;;;;;;;;;;4962691;28;20045;-84
2023/06/06 11:19:00;;;;;;;10.30;4.00;;;;;;;;;;4966965;28;20094;-83
2023/06/06 11:21:29;;;;;;;8.15;4.20;;;;;;;;;;4971042;28;20070;-83
2023/06/06 11:23:56;;;;;;;12.00;5.18;;;;;;;;;;4965742;28;20407;-83
2023/06/06 11:26:25;;;;;;;11.88;4.22;;;;;;;;;;4974220;28;20027;-82
2023/06/06 11:28:51;;;;;;;8.00;4.43;;;;;;;;;;4968883;28;20034;-83
2023/06/06 11:31:20;;;;;;;8.35;3.92;;;;;;;;;;4969375;28;20023;-84
2023/06/06 11:33:49;;;;;;;9.20;3.88;;;;;;;;;;4973664;28;20034;-83
2023/06/06 11:36:17;;;;;;;12.70;3.97;;;;;;;;;;4966056;28;20027;-81
2023/06/06 11:38:45;;;;;;;6.22;3.78;;;;;;;;;;4969528;28;20327;-84
2023/06/06 11:41:11;;;;;;;7.22;3.60;;;;;;;;;;4966226;28;20108;-83
2023/06/06 11:43:48;;;;;;;8.20;3.30;;;;;;;;;;4944695;28;20138;-84
2023/06/06 11:46:15;;;;;;;7.22;3.05;;;;;;;;;;4965091;28;20122;-83
2023/06/06 11:48:41;;;;;;;13.20;3.10;;;;;;;;;;4968947;28;20062;-81
2023/06/06 11:51:13;;;;;;;10.80;3.38;;;;;;;;;;4966555;28;20115;-82
2023/06/06 11:53:40;;;;;;;5.45;2.78;;;;;;;;;;4964778;28;20027;-80
2023/06/06 11:56:14;;;;;;;10.23;2.97;;;;;;;;;;4964680;28;20122;-83
2023/06/06 11:58:41;;;;;;;8.07;2.95;;;;;;;;;;4970164;28;20023;-82
2023/06/06 12:01:11;;;;;;;8.50;3.28;;;;;;;;;;4966189;28;20027;-83
2023/06/06 12:03:40;;;;;;;7.13;2.92;;;;;;;;;;4967276;28;20039;-82
2023/06/06 12:06:07;;;;;;;6.63;2.88;;;;;;;;;;4965508;28;20114;-84
2023/06/06 12:08:34;;;;;;;8.55;3.55;;;;;;;;;;4961842;28;20126;-83
2023/06/06 12:11:20;;;;;;;9.75;2.97;;;;;;;;;;4966103;28;20018;-82
2023/06/06 12:13:47;;;;;;;6.95;2.95;;;;;;;;;;4965621;28;20380;-81
2023/06/06 12:16:13;;;;;;;7.32;3.58;;;;;;;;;;4968238;28;20054;-81
2023/06/06 12:18:49;;;;;;;8.55;3.50;;;;;;;;;;4962413;28;20101;-84
2023/06/06 12:21:17;;;;;;;7.35;5.65;;;;;;;;;;4965241;28;20038;-82
2023/06/06 12:23:43;;;;;;;5.00;2.88;;;;;;;;;;4970658;28;20066;-81
2023/06/06 12:26:13;;;;;;;8.40;3.78;;;;;;;;;;4966616;28;20107;-83
2023/06/06 12:28:58;;;;;;;11.02;3.78;;;;;;;;;;4964178;28;20033;-83
2023/06/06 12:31:24;;;;;;;6.63;3.00;;;;;;;;;;4972471;28;20033;-84
2023/06/06 12:33:52;;;;;;;6.13;3.20;;;;;;;;;;4962710;28;20026;-83
2023/06/06 12:36:19;;;;;;;9.20;3.22;;;;;;;;;;4969072;28;20027;-85
2023/06/06 12:38:53;;;;;;;6.38;2.83;;;;;;;;;;4971307;28;20039;-83
2023/06/06 12:41:19;;;;;;;5.57;2.92;;;;;;;;;;4967857;28;20038;-84
2023/06/06 12:43:48;;;;;;;9.00;3.70;;;;;;;;;;4971768;28;20022;-83
2023/06/06 12:46:14;;;;;;;8.13;3.35;;;;;;;;;;4967806;28;20037;-83
2023/06/06 12:48:42;;;;;;;6.10;2.92;;;;;;;;;;4969335;28;20600;-84
2023/06/06 12:51:11;;;;;;;14.02;3.17;;;;;;;;;;4969167;28;20208;-83
2023/06/06 12:53:37;;;;;;;6.75;3.03;;;;;;;;;;4973436;28;20102;-83
2023/06/06 12:56:06;;;;;;;7.82;3.17;;;;;;;;;;4969590;28;20037;-85
2023/06/06 12:58:34;;;;;;;6.15;2.83;;;;;;;;;;4975375;28;20126;-83
2023/06/06 13:01:01;;;;;;;6.07;2.60;;;;;;;;;;4974642;28;20041;-84
2023/06/06 13:03:27;;;;;;;5.63;2.60;;;;;;;;;;4975105;28;20038;-84
2023/06/06 13:05:53;;;;;;;4.80;2.83;;;;;;;;;;4971096;28;20500;-83
2023/06/06 13:08:19;;;;;;;3.88;2.28;;;;;;;;;;4969424;28;20106;-83
2023/06/06 13:10:45;;;;;;;4.45;2.92;;;;;;;;;;4971995;28;20054;-82
2023/06/06 13:13:13;;;;;;;6.38;3.13;;;;;;;;;;4971754;28;20039;-82
2023/06/06 13:15:40;;;;;;;7.35;2.78;;;;;;;;;;4971669;28;20050;-83
2023/06/06 13:18:06;;;;;;;4.35;2.83;;;;;;;;;;4973278;28;20022;-83
2023/06/06 13:20:34;;;;;;;7.70;2.60;;;;;;;;;;4976434;28;20190;-82
2023/06/06 13:23:00;;;;;;;4.57;2.70;;;;;;;;;;4967444;28;20019;-84
2023/06/06 13:25:26;;;;;;;5.80;2.80;;;;;;;;;;4965401;28;20598;-83
2023/06/06 13:27:52;;;;;;;5.90;2.85;;;;;;;;;;4969988;28;20042;-83
2023/06/06 13:30:22;;;;;;;8.32;2.85;;;;;;;;;;4965171;28;20055;-83
2023/06/06 13:32:48;;;;;;;5.57;3.50;;;;;;;;;;4969191;28;20019;-83
2023/06/06 13:35:14;;;;;;;7.07;2.45;;;;;;;;;;4973957;28;20118;-84
2023/06/06 13:37:40;;;;;;;4.97;2.47;;;;;;;;;;4968891;28;20186;-83
2023/06/06 13:40:06;;;;;;;6.90;2.55;;;;;;;;;;4967063;28;20337;-83
2023/06/06 13:42:35;;;;;;;13.48;3.65;;;;;;;;;;4965954;28;20063;-83
2023/06/06 13:45:01;;;;;;;9.93;3.85;;;;;;;;;;4966040;28;20090;-83
2023/06/06 13:47:27;;;;;;;7.78;3.28;;;;;;;;;;4971864;28;20121;-82
2023/06/06 13:49:53;;;;;;;7.43;2.58;;;;;;;;;;4965798;28;20078;-85
2023/06/06 13:52:19;;;;;;;5.95;2.70;;;;;;;;;;4969268;28;20023;-84
2023/06/06 13:54:45;;;;;;;2.85;1.92;;;;;;;;;;4972458;28;20058;-84
2023/06/06 13:57:12;;;;;;;8.48;2.80;;;;;;;;;;4969825;28;20102;-84
2023/06/06 13:59:41;;;;;;;13.45;3.47;;;;;;;;;;4964315;28;20031;-82
2023/06/06 14:02:07;;;;;;;5.47;2.03;;;;;;;;;;4966930;28;20496;-82
2023/06/06 14:04:33;;;;;;;6.15;2.65;;;;;;;;;;4968515;28;20046;-83
2023/06/06 14:07:02;;;;;;;10.88;2.78;;;;;;;;;;4968932;28;20027;-84
2023/06/06 14:09:29;;;;;;;8.95;2.70;;;;;;;;;;4966038;28;20027;-83
2023/06/06 14:11:57;;;;;;;5.97;2.22;;;;;;;;;;4973930;28;20018;-83
2023/06/06 14:14:24;;;;;;;3.63;2.50;;;;;;;;;;4967302;28;20023;-84
2023/06/06 14:16:50;;;;;;;4.43;2.78;;;;;;;;;;4970113;28;20026;-85
2023/06/06 14:22:24;;;;;;;5.82;2.47;;;;;;;;;;4947376;28;20487;-84
2023/06/06 14:24:51;;;;;;;3.40;2.38;;;;;;;;;;4966126;28;20062;-84
2023/06/06 14:27:17;;;;;;;5.30;2.53;;;;;;;;;;4963030;28;20456;-85
2023/06/06 14:29:43;;;;;;;8.90;2.63;;;;;;;;;;4967530;28;20455;-84
2023/06/06 14:32:12;;;;;;;5.53;2.95;;;;;;;;;;4967509;28;20046;-82
2023/06/06 14:34:41;;;;;;;4.97;2.47;;;;;;;;;;4968084;28;20031;-83
2023/06/06 14:37:08;;;;;;;6.97;3.00;;;;;;;;;;4965358;28;20031;-82
2023/06/06 14:39:34;;;;;;;3.72;2.50;;;;;;;;;;4969631;28;20038;-83
2023/06/06 14:42:03;;;;;;;6.00;2.83;;;;;;;;;;4964624;28;20038;-83